createdAt,value
2022-12-09T00:01:29.205Z,1.65
2022-12-09T00:03:56.382Z,1.67
2022-12-09T00:06:23.874Z,1.67
2022-12-09T00:08:50.503Z,1.66
2022-12-09T00:11:17.097Z,1.68
2022-12-09T00:13:43.665Z,1.70
2022-12-09T00:16:13.320Z,1.70
2022-12-09T00:18:40.103Z,1.67
2022-12-09T00:21:14.186Z,1.66
2022-12-09T00:23:40.841Z,1.66
2022-12-09T00:26:07.518Z,1.63
2022-12-09T00:28:34.327Z,1.63
2022-12-09T00:31:01.463Z,1.62
2022-12-09T00:33:30.916Z,1.61
2022-12-09T00:36:03.744Z,1.62
2022-12-09T00:38:30.350Z,1.61
2022-12-09T00:40:56.873Z,1.57
2022-12-09T00:43:23.279Z,1.56
2022-12-09T00:45:49.602Z,1.54
2022-12-09T00:48:16.167Z,1.54
2022-12-09T00:50:44.375Z,1.52
2022-12-09T00:53:11.198Z,1.52
2022-12-09T00:55:38.023Z,1.53
2022-12-09T00:58:04.560Z,1.52
2022-12-09T01:00:31.034Z,1.52
2022-12-09T01:02:57.988Z,1.51
2022-12-09T01:05:24.840Z,1.50
2022-12-09T01:07:52.764Z,1.50
2022-12-09T01:10:19.269Z,1.54
2022-12-09T01:12:45.567Z,1.54
2022-12-09T01:15:11.861Z,1.55
2022-12-09T01:17:38.823Z,1.56
2022-12-09T01:20:08.061Z,1.54
2022-12-09T01:22:34.853Z,1.54
2022-12-09T01:25:02.649Z,1.53
2022-12-09T01:27:29.793Z,1.53
2022-12-09T01:29:56.092Z,1.54
2022-12-09T01:32:22.923Z,1.52
2022-12-09T01:34:49.341Z,1.53
2022-12-09T01:37:15.756Z,1.53
2022-12-09T01:39:42.207Z,1.53
2022-12-09T01:42:17.863Z,1.52
2022-12-09T01:44:59.079Z,1.52
2022-12-09T01:47:25.715Z,1.51
2022-12-09T01:49:52.087Z,1.50
2022-12-09T01:52:20.871Z,1.49
2022-12-09T01:54:48.509Z,1.51
2022-12-09T01:57:16.490Z,1.52
2022-12-09T01:59:43.569Z,1.54
2022-12-09T02:02:13.740Z,1.54
2022-12-09T02:04:41.244Z,1.53
2022-12-09T02:07:09.398Z,1.54
2022-12-09T02:09:36.187Z,1.53
2022-12-09T02:12:08.009Z,1.51
2022-12-09T02:14:39.531Z,1.51
2022-12-09T02:17:13.767Z,1.53
2022-12-09T02:19:49.440Z,1.52
2022-12-09T02:22:17.670Z,1.55
2022-12-09T02:24:51.048Z,1.55
2022-12-09T02:27:20.204Z,1.54
2022-12-09T02:30:07.538Z,1.54
2022-12-09T02:32:45.360Z,1.55
2022-12-09T02:35:17.421Z,1.51
2022-12-09T02:37:47.272Z,1.52
2022-12-09T02:40:16.107Z,1.53
2022-12-09T02:42:44.240Z,1.51
2022-12-09T02:45:12.354Z,1.52
2022-12-09T02:47:40.874Z,1.51
2022-12-09T02:50:11.604Z,1.52
2022-12-09T02:52:41.492Z,1.54
2022-12-09T02:55:09.517Z,1.52
2022-12-09T02:57:37.203Z,1.48
2022-12-09T03:00:06.508Z,1.51
2022-12-09T03:02:35.351Z,1.53
2022-12-09T03:05:08.203Z,1.54
2022-12-09T03:07:40.002Z,1.53
2022-12-09T03:10:11.525Z,1.53
2022-12-09T03:12:39.053Z,1.53
2022-12-09T03:15:06.639Z,1.56
2022-12-09T03:17:35.139Z,1.55
2022-12-09T03:20:05.809Z,1.56
2022-12-09T03:22:34.369Z,1.54
2022-12-09T03:25:03.503Z,1.57
2022-12-09T03:27:35.200Z,1.57
2022-12-09T03:30:03.600Z,1.58
2022-12-09T03:32:30.569Z,1.59
2022-12-09T03:34:59.887Z,1.61
2022-12-09T03:37:26.680Z,1.62
2022-12-09T03:39:55.372Z,1.61
2022-12-09T03:42:24.619Z,1.61
2022-12-09T03:44:55.565Z,1.62
2022-12-09T03:47:22.147Z,1.62
2022-12-09T03:49:48.692Z,1.63
2022-12-09T03:52:17.391Z,1.63
2022-12-09T03:54:44.688Z,1.61
2022-12-09T03:57:18.531Z,1.59
2022-12-09T03:59:47.189Z,1.59
2022-12-09T04:02:15.153Z,1.61
2022-12-09T04:04:42.186Z,1.63
2022-12-09T04:07:09.370Z,1.64
2022-12-09T04:09:36.076Z,1.65
2022-12-09T04:12:02.918Z,1.65
2022-12-09T04:14:29.295Z,1.65
2022-12-09T04:16:55.645Z,1.66
2022-12-09T04:19:23.355Z,1.66
2022-12-09T04:21:50.031Z,1.65
2022-12-09T04:24:16.602Z,1.66
2022-12-09T04:26:43.815Z,1.67
2022-12-09T04:29:10.656Z,1.67
2022-12-09T04:31:37.386Z,1.68
2022-12-09T04:34:09.298Z,1.68
2022-12-09T04:36:38.080Z,1.65
2022-12-09T04:39:04.855Z,1.62
2022-12-09T04:41:31.167Z,1.59
2022-12-09T04:43:57.581Z,1.54
2022-12-09T04:46:24.099Z,1.54
2022-12-09T04:48:50.569Z,1.53
2022-12-09T04:51:17.184Z,1.54
2022-12-09T04:53:45.753Z,1.53
2022-12-09T04:56:13.203Z,1.49
2022-12-09T04:58:39.542Z,1.45
2022-12-09T05:01:06.818Z,1.44
2022-12-09T05:03:33.692Z,1.42
2022-12-09T05:06:00.563Z,1.44
2022-12-09T05:08:31.481Z,1.45
2022-12-09T05:11:00.278Z,1.48
2022-12-09T05:13:26.927Z,1.50
2022-12-09T05:15:53.408Z,1.51
2022-12-09T05:18:19.916Z,1.55
2022-12-09T05:20:47.081Z,1.55
2022-12-09T05:23:13.736Z,1.59
2022-12-09T05:25:40.102Z,1.60
2022-12-09T05:28:08.450Z,1.61
2022-12-09T05:30:36.352Z,1.61
2022-12-09T05:33:02.850Z,1.64
2022-12-09T05:35:29.444Z,1.65
2022-12-09T05:37:56.027Z,1.67
2022-12-09T05:40:22.494Z,1.65
2022-12-09T05:42:49.066Z,1.66
2022-12-09T05:45:16.852Z,1.66
2022-12-09T05:47:43.404Z,1.68
2022-12-09T05:50:10.021Z,1.71
2022-12-09T05:52:37.289Z,1.71
2022-12-09T05:55:04.751Z,1.72
2022-12-09T05:57:33.094Z,1.72
2022-12-09T05:59:59.556Z,1.73
2022-12-09T06:02:27.769Z,1.75
2022-12-09T06:04:54.457Z,1.77
2022-12-09T06:07:21.481Z,1.76
2022-12-09T06:09:48.132Z,1.77
2022-12-09T06:12:14.690Z,1.77
2022-12-09T06:14:41.137Z,1.79
2022-12-09T06:17:07.605Z,1.80
2022-12-09T06:19:35.956Z,1.79
2022-12-09T06:22:02.883Z,1.79
2022-12-09T06:24:29.709Z,1.81
2022-12-09T06:26:56.290Z,1.80
2022-12-09T06:29:22.978Z,1.78
2022-12-09T06:31:49.527Z,1.76
2022-12-09T06:34:16.448Z,1.79
2022-12-09T06:36:44.220Z,1.78
2022-12-09T06:39:11.443Z,1.78
2022-12-09T06:41:38.158Z,1.78
2022-12-09T06:44:05.438Z,1.79
2022-12-09T06:46:32.050Z,1.81
2022-12-09T06:48:58.574Z,1.80
2022-12-09T06:51:25.975Z,1.80
2022-12-09T06:53:54.370Z,1.80
2022-12-09T06:56:21.105Z,1.79
2022-12-09T06:58:47.751Z,1.80
2022-12-09T07:01:15.925Z,1.83
2022-12-09T07:03:43.835Z,1.83
2022-12-09T07:06:16.657Z,1.85
2022-12-09T07:08:43.444Z,1.84
2022-12-09T07:11:11.774Z,1.84
2022-12-09T07:13:38.204Z,1.86
2022-12-09T07:16:05.445Z,1.85
2022-12-09T07:18:32.165Z,1.85
2022-12-09T07:20:58.696Z,1.85
2022-12-09T07:23:25.425Z,1.86
2022-12-09T07:25:55.746Z,1.87
2022-12-09T07:28:23.864Z,1.87
2022-12-09T07:30:50.189Z,1.87
2022-12-09T07:33:17.316Z,1.86
2022-12-09T07:35:44.040Z,1.87
2022-12-09T07:38:10.949Z,1.84
2022-12-09T07:40:37.576Z,1.85
2022-12-09T07:43:03.878Z,1.82
2022-12-09T07:45:33.535Z,1.81
2022-12-09T07:48:00.059Z,1.82
2022-12-09T07:50:26.821Z,1.78
2022-12-09T07:52:53.216Z,1.76
2022-12-09T07:55:19.706Z,1.72
2022-12-09T07:57:46.056Z,1.67
2022-12-09T08:00:12.952Z,1.62
2022-12-09T08:02:41.533Z,1.60
2022-12-09T08:05:08.954Z,1.52
2022-12-09T08:07:40.136Z,1.50
2022-12-09T08:10:11.527Z,1.47
2022-12-09T08:12:38.254Z,1.43
2022-12-09T08:15:06.184Z,1.42
2022-12-09T08:17:33.536Z,1.44
2022-12-09T08:20:01.446Z,1.40
2022-12-09T08:22:28.330Z,1.41
2022-12-09T08:24:55.147Z,1.36
2022-12-09T08:27:21.921Z,1.36
2022-12-09T08:29:48.325Z,1.38
2022-12-09T08:32:16.367Z,1.42
2022-12-09T08:34:42.970Z,1.46
2022-12-09T08:37:10.997Z,1.53
2022-12-09T08:39:37.486Z,1.57
2022-12-09T08:42:04.351Z,1.60
2022-12-09T08:44:31.157Z,1.63
2022-12-09T08:46:57.820Z,1.63
2022-12-09T08:49:24.429Z,1.62
2022-12-09T08:51:51.933Z,1.69
2022-12-09T08:54:20.185Z,1.74
2022-12-09T08:56:47.847Z,1.74
2022-12-09T08:59:14.552Z,1.68
2022-12-09T09:01:41.352Z,1.70
2022-12-09T09:04:08.695Z,1.71
2022-12-09T09:06:36.317Z,1.78
2022-12-09T09:09:03.966Z,1.84
2022-12-09T09:11:32.004Z,1.90
2022-12-09T09:13:58.856Z,1.95
2022-12-09T09:16:27.284Z,1.98
2022-12-09T09:18:54.400Z,1.97
2022-12-09T09:21:22.503Z,2.01
2022-12-09T09:23:49.468Z,2.01
2022-12-09T09:26:17.219Z,2.00
2022-12-09T09:28:45.219Z,1.97
2022-12-09T09:33:38.903Z,1.88
2022-12-09T09:36:10.267Z,1.88
2022-12-09T09:38:37.589Z,1.91
2022-12-09T09:41:08.268Z,1.93
2022-12-09T09:43:37.675Z,1.97
2022-12-09T09:46:05.260Z,1.99
2022-12-09T09:48:33.434Z,1.97
2022-12-09T09:51:03.701Z,1.96
2022-12-09T09:53:31.422Z,1.97
2022-12-09T09:55:59.849Z,1.93
2022-12-09T09:58:31.705Z,1.96
2022-12-09T10:01:02.486Z,1.94
2022-12-09T10:03:33.982Z,1.90
2022-12-09T10:06:06.883Z,1.88
2022-12-09T10:08:38.654Z,1.87
2022-12-09T10:11:12.181Z,1.88
2022-12-09T10:13:45.259Z,1.91
2022-12-09T10:16:14.397Z,1.88
2022-12-09T10:18:43.300Z,1.95
2022-12-09T10:21:16.398Z,2.00
2022-12-09T10:23:43.441Z,2.00
2022-12-09T10:26:12.641Z,2.01
2022-12-09T10:28:42.461Z,1.97
2022-12-09T10:31:10.310Z,2.01
2022-12-09T10:33:38.142Z,2.05
2022-12-09T10:36:05.167Z,2.06
2022-12-09T10:38:36.395Z,2.07
2022-12-09T10:41:05.908Z,2.11
2022-12-09T10:43:33.810Z,2.11
2022-12-09T10:46:31.067Z,2.17
2022-12-09T10:48:51.605Z,2.24
2022-12-09T10:51:20.019Z,2.27
2022-12-09T10:53:49.672Z,2.28
2022-12-09T10:56:20.895Z,2.32
2022-12-09T10:58:47.379Z,2.37
2022-12-09T11:01:15.364Z,2.41
2022-12-09T11:03:48.197Z,2.47
2022-12-09T11:06:18.540Z,2.48
2022-12-09T11:08:51.573Z,2.50
2022-12-09T11:11:18.976Z,2.53
2022-12-09T11:13:46.206Z,2.53
2022-12-09T11:16:12.740Z,2.49
2022-12-09T11:18:44.345Z,2.53
2022-12-09T11:21:29.838Z,2.58
2022-12-09T11:24:03.255Z,2.57
2022-12-09T11:26:35.193Z,2.61
2022-12-09T11:29:02.440Z,2.66
2022-12-09T11:31:33.289Z,2.70
2022-12-09T11:34:01.490Z,2.76
2022-12-09T11:36:31.343Z,2.77
2022-12-09T11:39:10.272Z,2.77
2022-12-09T11:41:36.661Z,2.73
2022-12-09T11:44:13.296Z,2.73
2022-12-09T11:46:40.291Z,2.76
2022-12-09T11:49:12.378Z,2.78
2022-12-09T11:51:41.350Z,2.79
2022-12-09T11:54:12.651Z,2.81
2022-12-09T11:56:40.684Z,2.83
2022-12-09T11:59:11.699Z,2.86
2022-12-09T12:01:46.833Z,2.84
2022-12-09T12:04:14.617Z,2.84
2022-12-09T12:06:44.232Z,2.83
2022-12-09T12:09:15.455Z,2.81
2022-12-09T12:11:44.955Z,2.78
2022-12-09T12:14:13.792Z,2.73
2022-12-09T12:16:45.387Z,2.66
2022-12-09T12:19:13.763Z,2.64
2022-12-09T12:21:55.029Z,2.71
2022-12-09T12:24:32.238Z,2.76
2022-12-09T12:27:03.840Z,2.78
2022-12-09T12:29:35.200Z,2.75
2022-12-09T12:32:14.980Z,2.71
2022-12-09T12:34:48.958Z,2.64
2022-12-09T12:37:30.351Z,2.67
2022-12-09T12:40:07.454Z,2.71
2022-12-09T12:42:39.359Z,2.58
2022-12-09T12:45:12.109Z,2.57
2022-12-09T12:47:43.324Z,2.56
2022-12-09T12:50:27.701Z,2.59
2022-12-09T12:52:58.477Z,2.64
2022-12-09T12:55:35.454Z,2.66
2022-12-09T12:58:05.071Z,2.69
2022-12-09T13:00:35.817Z,2.65
2022-12-09T13:03:10.344Z,2.65
2022-12-09T13:05:37.766Z,2.61
2022-12-09T13:08:06.377Z,2.64
2022-12-09T13:10:35.890Z,2.58
2022-12-09T13:13:04.427Z,2.57
2022-12-09T13:15:32.508Z,2.60
2022-12-09T13:18:01.259Z,2.66
2022-12-09T13:20:29.912Z,2.70
2022-12-09T13:23:00.259Z,2.71
2022-12-09T13:25:34.667Z,2.74
2022-12-09T13:28:06.645Z,2.78
2022-12-09T13:30:35.006Z,2.71
2022-12-09T13:33:13.919Z,2.72
2022-12-09T13:35:42.663Z,2.73
2022-12-09T13:38:23.712Z,2.63
2022-12-09T13:40:50.027Z,2.66
2022-12-09T13:43:21.323Z,2.59
2022-12-09T13:45:53.076Z,2.58
2022-12-09T13:48:39.972Z,2.67
2022-12-09T13:51:06.278Z,2.55
2022-12-09T13:53:33.827Z,2.53
2022-12-09T13:56:01.575Z,2.66
2022-12-09T13:58:36.810Z,2.61
2022-12-09T14:01:06.192Z,2.49
2022-12-09T14:03:33.722Z,2.38
2022-12-09T14:06:01.927Z,2.35
2022-12-09T14:08:30.887Z,2.38
2022-12-09T14:10:57.188Z,2.39
2022-12-09T14:13:31.094Z,2.39
2022-12-09T14:16:10.456Z,2.41
2022-12-09T14:18:39.961Z,2.40
2022-12-09T14:21:23.631Z,2.38
2022-12-09T14:24:10.900Z,2.39
2022-12-09T14:26:37.758Z,2.41
2022-12-09T14:29:04.487Z,2.35
2022-12-09T14:31:57.048Z,2.37
2022-12-09T14:34:41.321Z,2.30
2022-12-09T14:37:34.652Z,2.37
2022-12-09T14:40:05.117Z,2.35
2022-12-09T14:42:40.395Z,2.33
2022-12-09T14:45:13.201Z,2.32
2022-12-09T14:47:43.630Z,2.31
2022-12-09T14:50:13.508Z,2.33
2022-12-09T14:52:49.059Z,2.35
2022-12-09T14:55:15.993Z,2.35
2022-12-09T14:57:44.640Z,2.35
2022-12-09T15:00:24.711Z,2.35
2022-12-09T15:03:30.136Z,2.37
2022-12-09T15:05:39.320Z,2.36
2022-12-09T15:08:05.921Z,2.35
2022-12-09T15:10:33.625Z,2.39
2022-12-09T15:13:00.359Z,2.40
2022-12-09T15:15:30.186Z,2.35
2022-12-09T15:17:59.652Z,2.26
2022-12-09T15:20:28.146Z,2.27
2022-12-09T15:22:55.502Z,2.35
2022-12-09T15:25:22.708Z,2.30
2022-12-09T15:27:56.335Z,2.27
2022-12-09T15:30:24.054Z,2.21
2022-12-09T15:32:50.391Z,2.15
2022-12-09T15:35:20.006Z,2.15
2022-12-09T15:37:46.880Z,2.12
2022-12-09T15:40:15.389Z,2.13
2022-12-09T15:42:44.111Z,2.11
2022-12-09T15:45:11.632Z,2.11
2022-12-09T15:47:39.875Z,2.14
2022-12-09T15:50:13.159Z,2.16
2022-12-09T15:52:43.430Z,2.19
2022-12-09T15:55:11.490Z,2.21
2022-12-09T15:57:38.482Z,2.21
2022-12-09T16:00:05.524Z,2.23
2022-12-09T16:02:33.159Z,2.23
2022-12-09T16:05:02.060Z,2.21
2022-12-09T16:07:28.384Z,2.21
2022-12-09T16:10:09.051Z,2.19
2022-12-09T16:12:35.824Z,2.18
2022-12-09T16:15:02.545Z,2.14
2022-12-09T16:17:30.135Z,2.14
2022-12-09T16:19:56.442Z,2.19
2022-12-09T16:22:25.229Z,2.15
2022-12-09T16:27:44.611Z,2.03
2022-12-09T16:30:12.244Z,2.03
2022-12-09T16:32:40.251Z,2.03
2022-12-09T16:35:15.016Z,2.04
2022-12-09T16:37:42.435Z,2.06
2022-12-09T16:40:39.041Z,2.06
2022-12-09T16:43:20.333Z,2.02
2022-12-09T16:45:47.639Z,2.03
2022-12-09T16:48:14.630Z,2.03
2022-12-09T16:50:43.525Z,2.05
2022-12-09T16:53:13.320Z,2.05
2022-12-09T16:55:39.718Z,2.06
2022-12-09T16:58:06.006Z,2.08
2022-12-09T17:00:33.640Z,2.09
2022-12-09T17:03:02.167Z,2.09
2022-12-09T17:05:28.534Z,2.07
2022-12-09T17:07:55.009Z,2.05
2022-12-09T17:10:21.473Z,2.05
2022-12-09T17:12:48.132Z,2.06
2022-12-09T17:15:15.277Z,2.09
2022-12-09T17:17:48.270Z,2.06
2022-12-09T17:20:15.079Z,2.05
2022-12-09T17:22:41.435Z,2.05
2022-12-09T17:25:08.253Z,2.07
2022-12-09T17:27:34.735Z,2.07
2022-12-09T17:30:01.155Z,2.06
2022-12-09T17:32:27.572Z,2.08
2022-12-09T17:34:55.254Z,2.02
2022-12-09T17:37:21.579Z,1.96
2022-12-09T17:39:53.698Z,1.94
2022-12-09T17:42:22.111Z,1.97
2022-12-09T17:44:48.522Z,1.95
2022-12-09T17:47:14.838Z,1.94
2022-12-09T17:49:41.206Z,1.94
2022-12-09T17:52:08.895Z,1.95
2022-12-09T17:54:35.189Z,1.94
2022-12-09T17:57:01.495Z,1.94
2022-12-09T17:59:27.807Z,1.91
2022-12-09T18:01:54.195Z,1.91
2022-12-09T18:04:20.559Z,1.91
2022-12-09T18:06:46.872Z,1.92
2022-12-09T18:09:15.729Z,1.93
2022-12-09T18:11:42.451Z,1.93
2022-12-09T18:14:08.755Z,1.94
2022-12-09T18:16:35.469Z,1.94
2022-12-09T18:19:02.204Z,1.97
2022-12-09T18:21:28.524Z,1.95
2022-12-09T18:23:54.842Z,1.85
2022-12-09T18:26:25.826Z,1.84
2022-12-09T18:28:56.936Z,1.82
2022-12-09T18:31:23.760Z,1.81
2022-12-09T18:33:50.550Z,1.79
2022-12-09T18:36:18.300Z,1.78
2022-12-09T18:38:44.791Z,1.80
2022-12-09T18:41:11.378Z,1.81
2022-12-09T18:43:40.178Z,1.76
2022-12-09T18:46:07.638Z,1.76
2022-12-09T18:48:34.370Z,1.74
2022-12-09T18:51:00.761Z,1.70
2022-12-09T18:53:27.104Z,1.68
2022-12-09T18:55:53.789Z,1.65
2022-12-09T18:58:31.544Z,1.65
2022-12-09T19:01:15.731Z,1.67
2022-12-09T19:03:42.167Z,1.67
2022-12-09T19:06:17.161Z,1.65
2022-12-09T19:08:45.691Z,1.64
2022-12-09T19:11:11.994Z,1.64
2022-12-09T19:13:38.318Z,1.64
2022-12-09T19:16:05.177Z,1.64
2022-12-09T19:18:32.841Z,1.64
2022-12-09T19:21:06.282Z,1.61
2022-12-09T19:23:34.383Z,1.57
2022-12-09T19:26:01.003Z,1.57
2022-12-09T19:28:27.285Z,1.55
2022-12-09T19:30:53.642Z,1.54
2022-12-09T19:33:19.996Z,1.53
2022-12-09T19:35:48.037Z,1.54
2022-12-09T19:38:14.327Z,1.57
2022-12-09T19:40:40.644Z,1.62
2022-12-09T19:43:06.937Z,1.61
2022-12-09T19:45:33.230Z,1.57
2022-12-09T19:47:59.549Z,1.54
2022-12-09T19:50:26.368Z,1.54
2022-12-09T19:52:54.037Z,1.48
2022-12-09T19:55:20.358Z,1.44
2022-12-09T19:57:46.684Z,1.45
2022-12-09T20:00:13.407Z,1.45
2022-12-09T20:02:39.754Z,1.46
2022-12-09T20:05:06.308Z,1.43
2022-12-09T20:07:32.919Z,1.47
2022-12-09T20:10:01.028Z,1.38
2022-12-09T20:12:27.340Z,1.40
2022-12-09T20:14:53.652Z,1.41
2022-12-09T20:17:19.952Z,1.37
2022-12-09T20:19:46.656Z,1.37
2022-12-09T20:22:12.952Z,1.32
2022-12-09T20:24:39.225Z,1.30
2022-12-09T20:27:06.891Z,1.30
2022-12-09T20:29:37.535Z,1.29
2022-12-09T20:32:04.698Z,1.29
2022-12-09T20:34:31.036Z,1.25
2022-12-09T20:36:57.401Z,1.24
2022-12-09T20:39:23.684Z,1.31
2022-12-09T20:41:50.038Z,1.31
2022-12-09T20:44:18.456Z,1.29
2022-12-09T20:46:45.812Z,1.22
2022-12-09T20:49:12.116Z,1.19
2022-12-09T20:51:39.329Z,1.20
2022-12-09T20:54:06.397Z,1.28
2022-12-09T20:56:33.417Z,1.04
2022-12-09T20:58:59.967Z,0.92
2022-12-09T21:01:28.989Z,0.89
2022-12-09T21:03:56.146Z,0.82
2022-12-09T21:06:23.722Z,0.77
2022-12-09T21:08:50.219Z,0.68
2022-12-09T21:11:18.327Z,0.59
2022-12-09T21:13:45.248Z,0.53
2022-12-09T21:16:13.340Z,0.52
2022-12-09T21:18:41.432Z,0.50
2022-12-09T21:21:07.816Z,0.46
2022-12-09T21:23:35.089Z,0.40
2022-12-09T21:26:04.934Z,0.34
2022-12-09T21:28:31.277Z,0.30
2022-12-09T21:30:57.604Z,0.27
2022-12-09T21:33:23.949Z,0.19
2022-12-09T21:35:51.610Z,0.16
2022-12-09T21:38:18.374Z,0.14
2022-12-09T21:40:44.670Z,0.05
2022-12-09T21:43:10.954Z,0.04
2022-12-09T21:45:37.375Z,0.00
2022-12-09T21:48:03.737Z,-0.04
2022-12-09T21:50:30.022Z,-0.09
2022-12-09T21:52:57.712Z,-0.12
2022-12-09T21:55:24.002Z,-0.16
2022-12-09T21:57:50.297Z,-0.20
2022-12-09T22:00:16.827Z,-0.25
2022-12-09T22:02:43.163Z,-0.33
2022-12-09T22:05:09.574Z,-0.44
2022-12-09T22:07:35.876Z,-0.51
2022-12-09T22:10:04.090Z,-0.51
2022-12-09T22:12:30.395Z,-0.52
2022-12-09T22:14:56.676Z,-0.52
2022-12-09T22:17:22.953Z,-0.51
2022-12-09T22:20:01.128Z,-0.49
2022-12-09T22:22:36.138Z,-0.52
2022-12-09T22:25:04.213Z,-0.53
2022-12-09T22:27:30.535Z,-0.56
2022-12-09T22:29:56.817Z,-0.56
2022-12-09T22:32:23.131Z,-0.58
2022-12-09T22:34:49.458Z,-0.60
2022-12-09T22:37:42.489Z,-0.65
2022-12-09T22:40:02.123Z,-0.67
2022-12-09T22:42:29.871Z,-0.69
2022-12-09T22:44:56.159Z,-0.69
2022-12-09T22:47:22.483Z,-0.66
2022-12-09T22:49:48.792Z,-0.68
2022-12-09T22:52:15.116Z,-0.70
2022-12-09T22:54:41.481Z,-0.68
2022-12-09T22:57:07.769Z,-0.76
2022-12-09T22:59:39.804Z,-0.78
2022-12-09T23:02:09.283Z,-0.75
2022-12-09T23:04:35.616Z,-0.76
2022-12-09T23:07:02.095Z,-0.78
2022-12-09T23:09:28.454Z,-0.77
2022-12-09T23:11:54.752Z,-0.77
2022-12-09T23:14:21.029Z,-0.80
2022-12-09T23:16:48.710Z,-0.83
2022-12-09T23:19:15.539Z,-0.81
2022-12-09T23:21:42.135Z,-0.81
2022-12-09T23:24:10.526Z,-0.82
2022-12-09T23:26:37.862Z,-0.88
2022-12-09T23:29:04.979Z,-0.89
2022-12-09T23:31:32.634Z,-0.93
2022-12-09T23:34:00.986Z,-0.96
2022-12-09T23:36:28.898Z,-0.96
2022-12-09T23:38:55.320Z,-0.99
2022-12-09T23:41:22.317Z,-0.98
2022-12-09T23:43:49.398Z,-0.96
2022-12-09T23:46:16.761Z,-0.92
2022-12-09T23:48:43.386Z,-0.92
2022-12-09T23:51:11.898Z,-0.95
2022-12-09T23:53:38.710Z,-0.94
2022-12-09T23:56:05.425Z,-0.92
2022-12-09T23:58:32.504Z,-0.96
